createdAt,value
2022-10-28T00:01:04.755Z,17.50
2022-10-28T00:07:57.126Z,17.50
2022-10-28T00:11:24.552Z,17.40
2022-10-28T00:14:49.345Z,17.40
2022-10-28T00:18:12.772Z,17.40
2022-10-28T00:21:38.624Z,17.40
2022-10-28T00:25:02.152Z,17.40
2022-10-28T00:28:25.566Z,17.40
2022-10-28T00:31:50.826Z,17.40
2022-10-28T00:35:14.342Z,17.40
2022-10-28T00:38:37.833Z,17.30
2022-10-28T00:42:03.582Z,17.30
2022-10-28T00:45:27.050Z,17.30
2022-10-28T00:48:56.931Z,17.20
2022-10-28T00:52:25.552Z,17.20
2022-10-28T00:55:50.675Z,17.20
2022-10-28T00:59:24.123Z,17.20
2022-10-28T01:02:50.214Z,17.20
2022-10-28T01:06:15.968Z,17.20
2022-10-28T01:09:41.400Z,17.30
2022-10-28T01:13:17.111Z,17.30
2022-10-28T01:16:54.147Z,17.40
2022-10-28T01:21:14.837Z,17.40
2022-10-28T01:25:02.450Z,17.50
2022-10-28T01:29:03.163Z,17.50
2022-10-28T01:32:38.578Z,17.50
2022-10-28T01:36:14.777Z,17.40
2022-10-28T01:39:48.175Z,17.40
2022-10-28T01:43:18.496Z,17.30
2022-10-28T01:46:52.712Z,17.20
2022-10-28T01:50:26.115Z,17.20
2022-10-28T01:53:56.254Z,17.10
2022-10-28T01:57:21.967Z,17.10
2022-10-28T02:00:47.452Z,17.00
2022-10-28T02:04:11.144Z,17.00
2022-10-28T02:07:35.947Z,16.90
2022-10-28T02:11:31.922Z,16.80
2022-10-28T02:15:29.219Z,16.80
2022-10-28T02:19:05.350Z,16.70
2022-10-28T02:22:42.294Z,16.70
2022-10-28T02:26:15.978Z,16.70
2022-10-28T02:29:49.643Z,16.60
2022-10-28T02:33:20.047Z,16.60
2022-10-28T02:36:49.989Z,16.60
2022-10-28T02:40:22.280Z,16.60
2022-10-28T02:43:48.803Z,16.50
2022-10-28T02:47:19.756Z,16.50
2022-10-28T02:50:50.748Z,16.50
2022-10-28T02:54:18.514Z,16.50
2022-10-28T02:57:48.407Z,16.50
2022-10-28T03:01:12.054Z,17.00
2022-10-28T03:04:35.823Z,16.50
2022-10-28T03:07:59.255Z,16.50
2022-10-28T03:11:22.772Z,16.40
2022-10-28T03:14:47.632Z,16.40
2022-10-28T03:18:11.044Z,16.50
2022-10-28T03:21:34.488Z,16.50
2022-10-28T03:24:57.953Z,16.50
2022-10-28T03:28:21.377Z,16.40
2022-10-28T03:31:46.219Z,16.50
2022-10-28T03:35:10.104Z,16.50
2022-10-28T03:38:33.552Z,16.50
2022-10-28T03:41:56.999Z,16.50
2022-10-28T03:45:20.506Z,16.60
2022-10-28T03:48:45.344Z,16.60
2022-10-28T03:52:08.766Z,16.60
2022-10-28T03:55:32.184Z,16.70
2022-10-28T03:58:55.685Z,16.80
2022-10-28T04:02:19.243Z,16.80
2022-10-28T04:05:44.591Z,16.80
2022-10-28T04:09:08.069Z,16.80
2022-10-28T04:12:31.506Z,16.80
2022-10-28T04:15:54.984Z,16.80
2022-10-28T04:19:18.466Z,16.80
2022-10-28T04:22:43.407Z,16.90
2022-10-28T04:26:07.186Z,16.80
2022-10-28T04:29:30.642Z,16.80
2022-10-28T04:32:54.561Z,16.80
2022-10-28T04:36:18.019Z,16.80
2022-10-28T04:39:43.216Z,16.80
2022-10-28T04:43:08.614Z,16.80
2022-10-28T04:46:33.643Z,16.90
2022-10-28T04:49:56.998Z,16.90
2022-10-28T04:53:20.399Z,16.90
2022-10-28T04:56:45.174Z,17.00
2022-10-28T05:00:10.669Z,17.00
2022-10-28T05:03:34.173Z,17.00
2022-10-28T05:06:57.871Z,17.00
2022-10-28T05:10:21.288Z,17.00
2022-10-28T05:13:46.105Z,17.00
2022-10-28T05:17:11.510Z,17.00
2022-10-28T05:20:35.028Z,17.10
2022-10-28T05:23:58.646Z,17.00
2022-10-28T05:27:22.153Z,17.00
2022-10-28T05:30:46.909Z,17.10
2022-10-28T05:34:10.314Z,17.00
2022-10-28T05:37:33.749Z,17.00
2022-10-28T05:40:57.188Z,17.00
2022-10-28T05:44:20.617Z,16.90
2022-10-28T05:47:46.400Z,16.90
2022-10-28T05:51:09.784Z,16.80
2022-10-28T05:54:33.224Z,16.80
2022-10-28T05:57:57.785Z,16.80
2022-10-28T06:01:21.563Z,16.70
2022-10-28T06:04:46.497Z,16.70
2022-10-28T06:08:12.126Z,16.60
2022-10-28T06:11:34.953Z,16.60
2022-10-28T06:14:58.415Z,16.60
2022-10-28T06:18:23.428Z,16.50
2022-10-28T06:21:48.262Z,16.50
2022-10-28T06:25:11.652Z,16.50
2022-10-28T06:28:35.356Z,16.50
2022-10-28T06:31:58.931Z,16.50
2022-10-28T06:35:22.748Z,16.50
2022-10-28T06:38:47.501Z,16.50
2022-10-28T06:42:11.140Z,16.50
2022-10-28T06:45:35.214Z,16.50
2022-10-28T06:49:03.049Z,16.50
2022-10-28T06:52:26.430Z,16.50
2022-10-28T06:55:55.701Z,16.50
2022-10-28T06:59:19.196Z,16.50
2022-10-28T07:02:45.153Z,16.60
2022-10-28T07:06:09.014Z,16.60
2022-10-28T07:09:33.562Z,16.70
2022-10-28T07:12:58.533Z,16.70
2022-10-28T07:16:22.145Z,16.80
2022-10-28T07:19:45.559Z,16.80
2022-10-28T07:23:10.008Z,16.90
2022-10-28T07:26:33.436Z,17.00
2022-10-28T07:29:58.439Z,17.00
2022-10-28T07:33:22.133Z,17.00
2022-10-28T07:36:45.567Z,17.20
2022-10-28T07:40:10.415Z,17.20
2022-10-28T07:43:37.887Z,17.30
2022-10-28T07:47:02.726Z,17.40
2022-10-28T07:50:26.248Z,17.50
2022-10-28T07:53:50.082Z,17.60
2022-10-28T07:57:13.776Z,17.60
2022-10-28T08:00:37.455Z,17.70
2022-10-28T08:04:02.430Z,17.80
2022-10-28T08:07:25.998Z,17.90
2022-10-28T08:10:49.443Z,17.90
2022-10-28T08:14:12.875Z,18.00
2022-10-28T08:17:36.349Z,18.10
2022-10-28T08:21:02.791Z,18.10
2022-10-28T08:24:26.345Z,18.20
2022-10-28T08:27:49.787Z,18.20
2022-10-28T08:31:13.659Z,18.30
2022-10-28T08:34:39.480Z,18.40
2022-10-28T08:38:07.829Z,18.40
2022-10-28T08:41:39.326Z,18.50
2022-10-28T08:45:39.118Z,18.50
2022-10-28T08:49:04.195Z,18.60
2022-10-28T08:52:36.365Z,18.70
2022-10-28T08:56:14.668Z,18.70
2022-10-28T08:59:42.309Z,18.80
2022-10-28T09:03:20.499Z,18.90
2022-10-28T09:06:43.949Z,19.00
2022-10-28T09:10:08.302Z,19.10
2022-10-28T09:13:52.732Z,19.20
2022-10-28T09:17:20.987Z,19.20
2022-10-28T09:20:54.166Z,19.50
2022-10-28T09:24:23.477Z,19.50
2022-10-28T09:28:07.361Z,19.60
2022-10-28T09:31:38.987Z,19.80
2022-10-28T09:35:10.844Z,19.70
2022-10-28T09:38:37.720Z,19.80
2022-10-28T09:42:04.012Z,19.90
2022-10-28T09:45:31.920Z,20.00
2022-10-28T09:49:04.238Z,20.00
2022-10-28T09:52:34.456Z,20.10
2022-10-28T09:55:57.873Z,20.10
2022-10-28T09:59:21.239Z,20.20
2022-10-28T10:02:46.485Z,20.30
2022-10-28T10:06:15.796Z,20.70
2022-10-28T10:09:40.921Z,21.20
2022-10-28T10:13:07.962Z,21.90
2022-10-28T10:16:42.240Z,22.50
2022-10-28T10:20:09.032Z,23.00
2022-10-28T10:23:36.893Z,23.50
2022-10-28T10:27:04.811Z,23.90
2022-10-28T10:30:34.271Z,24.10
2022-10-28T10:33:59.702Z,24.30
2022-10-28T10:37:24.800Z,24.50
2022-10-28T10:40:52.942Z,24.60
2022-10-28T10:44:33.469Z,24.50
2022-10-28T10:48:15.489Z,24.40
2022-10-28T10:51:41.283Z,24.30
2022-10-28T10:55:09.407Z,24.30
2022-10-28T10:58:38.603Z,24.30
2022-10-28T11:02:02.233Z,24.30
2022-10-28T11:05:29.278Z,24.10
2022-10-28T11:09:06.458Z,23.90
2022-10-28T11:12:35.119Z,23.70
2022-10-28T11:16:04.738Z,23.60
2022-10-28T11:19:32.005Z,23.40
2022-10-28T11:23:19.065Z,23.40
2022-10-28T11:26:54.721Z,23.40
2022-10-28T11:30:22.255Z,23.40
2022-10-28T11:34:10.895Z,23.40
2022-10-28T11:38:00.123Z,23.40
2022-10-28T11:41:42.332Z,23.40
2022-10-28T11:45:23.242Z,23.40
2022-10-28T11:49:20.108Z,23.30
2022-10-28T11:53:11.932Z,23.30
2022-10-28T11:56:40.482Z,23.30
2022-10-28T12:01:00.871Z,23.20
2022-10-28T12:04:52.401Z,23.10
2022-10-28T12:08:38.113Z,23.00
2022-10-28T12:12:19.603Z,22.90
2022-10-28T12:15:56.288Z,22.80
2022-10-28T12:19:27.967Z,22.80
2022-10-28T12:22:58.077Z,22.90
2022-10-28T12:26:34.230Z,22.90
2022-10-28T12:30:04.868Z,22.90
2022-10-28T12:33:36.523Z,23.00
2022-10-28T12:37:06.299Z,23.20
2022-10-28T12:40:40.124Z,23.30
2022-10-28T12:44:10.418Z,23.40
2022-10-28T12:47:43.362Z,23.50
2022-10-28T12:51:15.846Z,21.60
2022-10-28T12:54:55.152Z,23.70
2022-10-28T12:58:30.874Z,23.80
2022-10-28T13:01:55.013Z,24.00
2022-10-28T13:05:26.560Z,24.00
2022-10-28T13:09:45.777Z,24.10
2022-10-28T13:13:36.359Z,24.10
2022-10-28T13:17:25.455Z,24.20
2022-10-28T13:21:02.979Z,24.20
2022-10-28T13:24:42.332Z,24.20
2022-10-28T13:28:12.382Z,24.20
2022-10-28T13:31:47.019Z,24.20
2022-10-28T13:35:22.322Z,24.20
2022-10-28T13:38:53.990Z,24.20
2022-10-28T13:42:47.742Z,24.20
2022-10-28T13:46:11.236Z,24.10
2022-10-28T13:49:38.214Z,24.10
2022-10-28T13:53:44.777Z,24.10
2022-10-28T13:57:17.853Z,24.00
2022-10-28T14:00:41.560Z,24.00
2022-10-28T14:04:06.958Z,23.90
2022-10-28T14:07:34.693Z,23.90
2022-10-28T14:11:07.036Z,23.80
2022-10-28T14:14:30.982Z,23.70
2022-10-28T14:18:10.302Z,23.60
2022-10-28T14:21:45.604Z,23.60
2022-10-28T14:26:02.136Z,23.50
2022-10-28T14:29:30.219Z,23.50
2022-10-28T14:33:23.021Z,23.50
2022-10-28T14:37:03.606Z,23.50
2022-10-28T14:40:41.237Z,23.50
2022-10-28T14:44:33.284Z,23.70
2022-10-28T14:48:41.167Z,23.60
2022-10-28T14:52:10.744Z,23.60
2022-10-28T14:55:37.520Z,23.60
2022-10-28T14:59:17.407Z,23.50
2022-10-28T15:02:40.931Z,23.50
2022-10-28T15:06:24.583Z,23.50
2022-10-28T15:09:53.312Z,23.50
2022-10-28T15:13:20.171Z,23.40
2022-10-28T15:16:50.796Z,23.40
2022-10-28T15:20:23.486Z,23.30
2022-10-28T15:23:59.603Z,23.20
2022-10-28T15:27:24.335Z,23.20
2022-10-28T15:30:49.551Z,23.10
2022-10-28T15:34:21.884Z,23.10
2022-10-28T15:37:46.478Z,23.00
2022-10-28T15:41:42.425Z,23.00
2022-10-28T15:45:07.773Z,22.90
2022-10-28T15:48:32.421Z,22.90
2022-10-28T15:52:31.760Z,22.80
2022-10-28T15:56:24.197Z,22.70
2022-10-28T15:59:47.528Z,22.70
2022-10-28T16:03:27.411Z,22.60
2022-10-28T16:06:56.525Z,22.60
2022-10-28T16:10:19.985Z,22.50
2022-10-28T16:13:49.934Z,22.50
2022-10-28T16:17:17.978Z,22.40
2022-10-28T16:20:41.389Z,22.30
2022-10-28T16:24:06.918Z,22.30
2022-10-28T16:27:33.611Z,22.30
2022-10-28T16:31:00.000Z,22.20
2022-10-28T16:34:23.316Z,22.20
2022-10-28T16:37:49.476Z,22.10
2022-10-28T16:41:19.243Z,22.10
2022-10-28T16:44:42.664Z,22.10
2022-10-28T16:48:11.693Z,22.00
2022-10-28T16:51:35.077Z,22.00
2022-10-28T16:54:59.443Z,21.90
2022-10-28T16:58:26.144Z,21.90
2022-10-28T17:01:51.398Z,21.90
2022-10-28T17:05:21.111Z,21.80
2022-10-28T17:12:29.158Z,21.70
2022-10-28T17:15:54.578Z,21.70
2022-10-28T17:19:17.956Z,21.60
2022-10-28T17:22:41.484Z,21.60
2022-10-28T17:26:04.782Z,21.60
2022-10-28T17:29:28.540Z,21.60
2022-10-28T17:32:55.748Z,21.50
2022-10-28T17:36:19.079Z,21.50
2022-10-28T17:39:42.780Z,21.50
2022-10-28T17:43:06.184Z,21.40
2022-10-28T17:46:29.537Z,21.40
2022-10-28T17:49:54.644Z,21.30
2022-10-28T17:53:18.421Z,21.30
2022-10-28T17:56:42.186Z,21.20
2022-10-28T18:00:06.953Z,21.10
2022-10-28T18:03:38.923Z,21.00
2022-10-28T18:07:03.944Z,20.90
2022-10-28T18:10:27.308Z,20.90
2022-10-28T18:13:52.771Z,20.80
2022-10-28T18:17:17.208Z,20.80
2022-10-28T18:20:40.515Z,20.80
2022-10-28T18:24:05.970Z,20.70
2022-10-28T18:27:30.567Z,20.70
2022-10-28T18:30:54.471Z,20.60
2022-10-28T18:34:18.025Z,20.60
2022-10-28T18:37:41.565Z,20.50
2022-10-28T18:41:10.954Z,20.50
2022-10-28T18:44:34.355Z,20.40
2022-10-28T18:47:58.576Z,20.40
2022-10-28T18:51:22.056Z,20.30
2022-10-28T18:54:45.375Z,20.30
2022-10-28T18:58:14.192Z,20.20
2022-10-28T19:01:38.451Z,20.20
2022-10-28T19:05:02.213Z,20.20
2022-10-28T19:08:25.629Z,20.20
2022-10-28T19:11:48.969Z,20.20
2022-10-28T19:15:13.941Z,20.20
2022-10-28T19:18:38.271Z,20.10
2022-10-28T19:22:01.709Z,20.10
2022-10-28T19:25:25.177Z,20.10
2022-10-28T19:28:50.528Z,20.10
2022-10-28T19:32:15.519Z,20.10
2022-10-28T19:35:38.816Z,20.10
2022-10-28T19:39:03.809Z,20.00
2022-10-28T19:42:27.307Z,20.00
2022-10-28T19:45:50.619Z,20.00
2022-10-28T19:49:15.339Z,19.90
2022-10-28T19:52:38.777Z,19.90
2022-10-28T19:56:05.069Z,19.80
2022-10-28T19:59:28.766Z,18.60
2022-10-28T20:02:52.210Z,19.70
2022-10-28T20:06:19.009Z,19.60
2022-10-28T20:09:42.485Z,19.60
2022-10-28T20:13:06.115Z,19.60
2022-10-28T20:16:30.488Z,19.50
2022-10-28T20:19:54.003Z,19.50
2022-10-28T20:23:18.813Z,19.50
2022-10-28T20:26:42.249Z,19.40
2022-10-28T20:30:07.515Z,19.40
2022-10-28T20:33:32.215Z,19.40
2022-10-28T20:36:56.059Z,19.40
2022-10-28T20:40:21.250Z,19.30
2022-10-28T20:43:44.646Z,19.30
2022-10-28T20:47:08.178Z,19.20
2022-10-28T20:50:31.590Z,19.20
2022-10-28T20:53:55.976Z,19.20
2022-10-28T20:57:21.129Z,19.10
2022-10-28T21:00:44.559Z,19.10
2022-10-28T21:04:10.866Z,19.00
2022-10-28T21:07:35.777Z,19.00
2022-10-28T21:11:03.264Z,19.00
2022-10-28T21:14:28.118Z,18.90
2022-10-28T21:17:51.774Z,18.90
2022-10-28T21:21:15.640Z,18.90
2022-10-28T21:24:39.111Z,18.90
2022-10-28T21:28:02.611Z,18.90
2022-10-28T21:31:27.731Z,18.80
2022-10-28T21:34:51.557Z,18.80
2022-10-28T21:38:17.030Z,18.80
2022-10-28T21:41:40.501Z,18.70
2022-10-28T21:45:04.561Z,18.70
2022-10-28T21:48:30.713Z,18.70
2022-10-28T21:51:54.293Z,18.60
2022-10-28T21:55:26.685Z,18.60
2022-10-28T21:58:57.408Z,18.50
2022-10-28T22:02:20.920Z,18.50
2022-10-28T22:05:52.144Z,18.50
2022-10-28T22:09:15.683Z,18.50
2022-10-28T22:12:39.125Z,18.50
2022-10-28T22:16:06.032Z,18.60
2022-10-28T22:19:29.561Z,18.50
2022-10-28T22:22:54.573Z,18.50
2022-10-28T22:26:21.911Z,18.50
2022-10-28T22:29:45.336Z,18.40
2022-10-28T22:33:10.224Z,18.40
2022-10-28T22:36:36.198Z,18.40
2022-10-28T22:40:00.957Z,18.50
2022-10-28T22:43:24.449Z,18.40
2022-10-28T22:46:48.126Z,18.40
2022-10-28T22:50:12.095Z,18.30
2022-10-28T22:53:35.618Z,18.30
2022-10-28T22:57:00.429Z,18.30
2022-10-28T23:00:23.820Z,18.20
2022-10-28T23:03:50.176Z,18.20
2022-10-28T23:07:13.611Z,18.20
2022-10-28T23:10:37.027Z,18.20
2022-10-28T23:14:01.963Z,18.20
2022-10-28T23:17:25.498Z,18.20
2022-10-28T23:20:48.931Z,18.10
2022-10-28T23:24:12.643Z,18.10
2022-10-28T23:27:36.131Z,18.10
2022-10-28T23:31:03.190Z,18.10
2022-10-28T23:34:28.041Z,18.10
2022-10-28T23:37:51.450Z,18.00
2022-10-28T23:41:18.805Z,18.00
2022-10-28T23:44:42.754Z,18.00
2022-10-28T23:48:08.155Z,17.90
2022-10-28T23:51:31.578Z,17.90
2022-10-28T23:54:55.375Z,17.90
2022-10-28T23:58:20.904Z,17.80
